createdAt,value
2023-01-05T00:00:02.447Z,3.42
2023-01-05T00:03:13.850Z,3.42
2023-01-05T00:06:17.760Z,2.90
2023-01-05T00:09:19.779Z,3.35
2023-01-05T00:12:39.631Z,2.60
2023-01-05T00:15:59.449Z,2.25
2023-01-05T00:19:19.441Z,3.63
2023-01-05T00:22:33.502Z,2.25
2023-01-05T00:25:40.235Z,3.28
2023-01-05T00:28:41.676Z,2.45
2023-01-05T00:31:44.967Z,3.00
2023-01-05T00:34:46.563Z,3.55
2023-01-05T00:37:48.084Z,2.97
2023-01-05T00:40:49.832Z,2.40
2023-01-05T00:43:51.414Z,2.95
2023-01-05T00:46:52.904Z,2.72
2023-01-05T00:49:54.432Z,2.78
2023-01-05T00:52:55.969Z,2.85
2023-01-05T00:55:58.436Z,3.88
2023-01-05T00:59:00.213Z,3.65
2023-01-05T01:02:02.231Z,2.45
2023-01-05T01:05:05.111Z,2.97
2023-01-05T01:08:06.672Z,4.00
2023-01-05T01:11:09.677Z,2.33
2023-01-05T01:14:12.141Z,3.53
2023-01-05T01:17:13.623Z,2.45
2023-01-05T01:20:15.183Z,2.95
2023-01-05T01:23:16.633Z,3.13
2023-01-05T01:26:18.127Z,2.58
2023-01-05T01:29:21.175Z,2.88
2023-01-05T01:32:24.354Z,2.30
2023-01-05T01:35:26.029Z,2.70
2023-01-05T01:38:27.796Z,2.60
2023-01-05T01:41:29.387Z,2.80
2023-01-05T01:45:21.749Z,2.92
2023-01-05T01:48:23.295Z,3.00
2023-01-05T01:51:30.163Z,3.40
2023-01-05T01:54:31.783Z,2.67
2023-01-05T01:57:35.006Z,2.40
2023-01-05T02:00:38.238Z,3.47
2023-01-05T02:03:40.498Z,3.20
2023-01-05T02:06:42.487Z,3.42
2023-01-05T02:09:44.538Z,4.22
2023-01-05T02:12:49.007Z,4.78
2023-01-05T02:15:53.565Z,4.50
2023-01-05T02:19:20.083Z,3.58
2023-01-05T02:22:55.029Z,4.90
2023-01-05T02:26:29.401Z,3.55
2023-01-05T02:29:55.237Z,4.70
2023-01-05T02:33:32.040Z,3.92
2023-01-05T02:36:58.320Z,4.03
2023-01-05T02:40:06.554Z,3.67
2023-01-05T02:43:14.696Z,2.60
2023-01-05T02:46:16.277Z,3.75
2023-01-05T02:49:17.983Z,4.13
2023-01-05T02:52:21.266Z,3.20
2023-01-05T02:55:53.820Z,3.05
2023-01-05T02:59:01.853Z,3.25
2023-01-05T03:02:11.333Z,3.10
2023-01-05T03:05:21.206Z,4.38
2023-01-05T03:08:32.453Z,3.13
2023-01-05T03:12:22.681Z,2.75
2023-01-05T03:15:29.069Z,4.38
2023-01-05T03:18:32.849Z,3.08
2023-01-05T03:21:54.027Z,3.58
2023-01-05T03:25:15.416Z,3.92
2023-01-05T03:28:42.493Z,2.72
2023-01-05T03:32:34.888Z,3.10
2023-01-05T03:35:42.430Z,2.70
2023-01-05T03:38:48.164Z,3.85
2023-01-05T03:41:50.643Z,2.67
2023-01-05T03:44:53.613Z,4.57
2023-01-05T03:47:56.004Z,3.22
2023-01-05T03:51:00.858Z,3.13
2023-01-05T03:54:03.512Z,4.57
2023-01-05T03:57:07.324Z,2.50
2023-01-05T04:00:09.678Z,3.40
2023-01-05T04:03:19.657Z,3.83
2023-01-05T04:06:22.573Z,3.28
2023-01-05T04:09:24.202Z,2.70
2023-01-05T04:12:25.773Z,2.03
2023-01-05T04:15:27.331Z,2.42
2023-01-05T04:18:30.017Z,2.85
2023-01-05T04:21:32.845Z,3.15
2023-01-05T04:24:35.325Z,2.70
2023-01-05T04:27:38.844Z,4.07
2023-01-05T04:30:43.661Z,2.03
2023-01-05T04:33:45.812Z,2.75
2023-01-05T04:36:52.116Z,3.00
2023-01-05T04:39:55.940Z,2.30
2023-01-05T04:42:57.715Z,3.20
2023-01-05T04:45:59.744Z,3.13
2023-01-05T04:49:01.410Z,2.50
2023-01-05T04:52:03.643Z,1.85
2023-01-05T04:55:08.656Z,2.67
2023-01-05T04:58:12.145Z,3.42
2023-01-05T05:01:15.704Z,3.42
2023-01-05T05:04:20.738Z,2.72
2023-01-05T05:07:24.597Z,2.72
2023-01-05T05:10:27.963Z,4.13
2023-01-05T05:13:31.140Z,2.50
2023-01-05T05:16:33.949Z,3.00
2023-01-05T05:19:36.244Z,2.67
2023-01-05T05:22:37.822Z,3.80
2023-01-05T05:25:39.849Z,2.78
2023-01-05T05:28:41.358Z,3.35
2023-01-05T05:31:42.918Z,5.28
2023-01-05T05:34:44.452Z,4.45
2023-01-05T05:37:48.953Z,3.10
2023-01-05T05:40:53.021Z,3.20
2023-01-05T05:43:54.558Z,3.97
2023-01-05T05:46:56.076Z,3.25
2023-01-05T05:49:57.629Z,3.70
2023-01-05T05:53:00.190Z,4.10
2023-01-05T05:56:01.652Z,3.67
2023-01-05T05:59:03.267Z,3.55
2023-01-05T06:02:04.952Z,2.15
2023-01-05T06:05:07.206Z,4.53
2023-01-05T06:08:08.762Z,3.40
2023-01-05T06:11:10.286Z,3.38
2023-01-05T06:14:11.839Z,3.60
2023-01-05T06:17:13.308Z,3.38
2023-01-05T06:20:16.557Z,4.28
2023-01-05T06:23:18.066Z,2.45
2023-01-05T06:26:19.933Z,3.05
2023-01-05T06:29:21.401Z,2.58
2023-01-05T06:32:22.970Z,3.53
2023-01-05T06:35:24.451Z,3.33
2023-01-05T06:38:26.646Z,3.67
2023-01-05T06:41:28.201Z,2.97
2023-01-05T06:44:29.711Z,2.42
2023-01-05T06:47:31.184Z,2.67
2023-01-05T06:50:32.794Z,3.35
2023-01-05T06:53:34.305Z,3.90
2023-01-05T06:56:35.851Z,6.15
2023-01-05T06:59:37.329Z,6.25
2023-01-05T07:02:39.020Z,5.40
2023-01-05T07:05:41.371Z,11.00
2023-01-05T07:08:42.946Z,9.52
2023-01-05T07:11:44.446Z,8.93
2023-01-05T07:14:45.943Z,8.55
2023-01-05T07:17:47.398Z,9.10
2023-01-05T07:20:48.946Z,6.57
2023-01-05T07:23:50.431Z,8.80
2023-01-05T07:26:51.970Z,5.63
2023-01-05T07:29:53.431Z,6.25
2023-01-05T07:32:58.665Z,8.45
2023-01-05T07:36:04.628Z,5.03
2023-01-05T07:39:06.151Z,6.13
2023-01-05T07:42:07.623Z,7.22
2023-01-05T07:45:11.388Z,5.32
2023-01-05T07:48:12.871Z,4.90
2023-01-05T07:51:14.440Z,5.25
2023-01-05T07:54:15.979Z,6.32
2023-01-05T07:57:17.421Z,6.22
2023-01-05T08:00:19.232Z,7.95
2023-01-05T08:03:21.579Z,5.28
2023-01-05T08:06:23.937Z,6.88
2023-01-05T08:09:44.075Z,6.75
2023-01-05T08:13:03.849Z,7.90
2023-01-05T08:16:05.887Z,6.88
2023-01-05T08:19:11.339Z,5.35
2023-01-05T08:22:13.321Z,3.83
2023-01-05T08:25:14.889Z,5.53
2023-01-05T08:28:16.414Z,6.30
2023-01-05T08:31:21.808Z,7.07
2023-01-05T08:34:23.363Z,8.15
2023-01-05T08:37:24.852Z,9.80
2023-01-05T08:40:26.353Z,10.25
2023-01-05T08:43:27.903Z,5.40
2023-01-05T08:46:35.340Z,9.82
2023-01-05T08:49:36.840Z,4.95
2023-01-05T08:52:39.123Z,9.13
2023-01-05T08:55:40.627Z,6.97
2023-01-05T08:58:42.193Z,5.85
2023-01-05T09:01:43.795Z,5.85
2023-01-05T09:04:45.352Z,6.32
2023-01-05T09:07:46.876Z,7.03
2023-01-05T09:10:48.348Z,7.18
2023-01-05T09:13:52.265Z,4.95
2023-01-05T09:17:09.623Z,5.63
2023-01-05T09:20:11.360Z,10.60
2023-01-05T09:23:12.812Z,5.78
2023-01-05T09:26:18.113Z,5.05
2023-01-05T09:29:19.706Z,7.85
2023-01-05T09:32:21.285Z,5.88
2023-01-05T09:35:22.778Z,6.72
2023-01-05T09:38:24.431Z,6.90
2023-01-05T09:41:48.490Z,7.72
2023-01-05T09:44:58.807Z,5.78
2023-01-05T09:48:01.284Z,4.63
2023-01-05T09:51:02.783Z,5.60
2023-01-05T09:54:04.598Z,6.65
2023-01-05T09:57:13.811Z,4.22
2023-01-05T10:00:17.315Z,6.53
2023-01-05T10:04:01.977Z,7.95
2023-01-05T10:06:49.683Z,6.80
2023-01-05T10:09:55.245Z,5.88
2023-01-05T10:13:05.611Z,5.17
2023-01-05T10:16:16.490Z,7.05
2023-01-05T10:19:19.691Z,5.75
2023-01-05T10:22:25.986Z,4.15
2023-01-05T10:25:47.793Z,3.40
2023-01-05T10:29:10.634Z,6.85
2023-01-05T10:32:25.838Z,4.70
2023-01-05T10:36:05.265Z,3.90
2023-01-05T10:39:13.585Z,7.22
2023-01-05T10:45:30.372Z,4.55
2023-01-05T10:48:35.730Z,3.92
2023-01-05T10:51:37.229Z,4.25
2023-01-05T10:54:44.515Z,3.50
2023-01-05T10:57:46.184Z,5.03
2023-01-05T11:00:48.245Z,5.10
2023-01-05T11:07:26.094Z,3.00
2023-01-05T11:10:41.380Z,4.13
2023-01-05T11:13:49.507Z,2.60
2023-01-05T11:16:54.108Z,2.50
2023-01-05T11:19:57.632Z,3.25
2023-01-05T11:22:59.163Z,3.25
2023-01-05T11:26:26.525Z,3.63
2023-01-05T11:32:29.904Z,3.72
2023-01-05T11:35:36.455Z,4.18
2023-01-05T11:41:39.443Z,3.78
2023-01-05T11:44:50.530Z,3.38
2023-01-05T11:48:07.045Z,2.50
2023-01-05T11:51:08.528Z,7.65
2023-01-05T11:54:33.955Z,4.45
2023-01-05T11:57:39.045Z,5.32
2023-01-05T12:00:46.559Z,3.92
2023-01-05T12:04:03.855Z,3.97
2023-01-05T12:07:13.819Z,6.35
2023-01-05T12:10:36.501Z,6.55
2023-01-05T12:13:47.047Z,6.45
2023-01-05T12:16:55.939Z,4.28
2023-01-05T12:20:19.275Z,7.82
2023-01-05T12:23:33.123Z,3.55
2023-01-05T12:26:46.750Z,7.25
2023-01-05T12:31:47.394Z,5.05
2023-01-05T12:34:22.772Z,6.53
2023-01-05T12:37:42.781Z,4.30
2023-01-05T12:41:09.821Z,5.30
2023-01-05T12:44:30.068Z,6.28
2023-01-05T12:47:31.496Z,4.68
2023-01-05T12:50:44.963Z,5.80
2023-01-05T12:54:02.586Z,4.75
2023-01-05T12:57:10.498Z,4.68
2023-01-05T13:00:18.214Z,5.82
2023-01-05T13:03:22.838Z,10.43
2023-01-05T13:06:26.857Z,6.30
2023-01-05T13:09:32.283Z,4.68
2023-01-05T13:12:35.658Z,9.27
2023-01-05T13:15:56.701Z,8.35
2023-01-05T13:19:05.898Z,7.20
2023-01-05T13:22:35.096Z,8.73
2023-01-05T13:25:46.739Z,3.33
2023-01-05T13:28:58.401Z,6.60
2023-01-05T13:32:02.559Z,8.18
2023-01-05T13:35:28.769Z,8.13
2023-01-05T13:38:54.603Z,8.30
2023-01-05T13:42:42.998Z,4.43
2023-01-05T13:46:14.759Z,7.15
2023-01-05T13:49:34.223Z,5.53
2023-01-05T13:53:01.341Z,5.30
2023-01-05T13:56:11.328Z,7.03
2023-01-05T13:59:29.084Z,5.45
2023-01-05T14:02:43.956Z,6.68
2023-01-05T14:05:56.651Z,5.43
2023-01-05T14:09:16.145Z,6.60
2023-01-05T14:12:17.654Z,5.82
2023-01-05T14:15:37.448Z,4.97
2023-01-05T14:18:53.044Z,7.03
2023-01-05T14:21:56.453Z,4.05
2023-01-05T14:24:57.986Z,5.78
2023-01-05T14:28:19.376Z,3.58
2023-01-05T14:31:27.923Z,4.07
2023-01-05T14:34:30.842Z,5.43
2023-01-05T14:37:43.769Z,3.97
2023-01-05T14:40:52.715Z,5.07
2023-01-05T14:44:03.111Z,7.38
2023-01-05T14:47:05.713Z,6.20
2023-01-05T14:50:27.246Z,5.35
2023-01-05T14:53:43.271Z,4.07
2023-01-05T14:57:23.205Z,7.00
2023-01-05T15:04:03.934Z,4.38
2023-01-05T15:07:37.898Z,6.20
2023-01-05T15:11:03.951Z,5.57
2023-01-05T15:14:35.121Z,3.30
2023-01-05T15:17:53.817Z,3.65
2023-01-05T15:21:27.664Z,5.18
2023-01-05T15:24:56.566Z,4.07
2023-01-05T15:28:05.717Z,2.78
2023-01-05T15:31:16.303Z,4.75
2023-01-05T15:34:34.535Z,4.47
2023-01-05T15:37:38.587Z,4.72
2023-01-05T15:40:40.102Z,5.72
2023-01-05T15:43:42.646Z,5.10
2023-01-05T15:46:44.169Z,6.63
2023-01-05T15:49:46.921Z,5.80
2023-01-05T15:52:54.536Z,3.40
2023-01-05T15:55:57.346Z,5.63
2023-01-05T15:59:01.967Z,4.78
2023-01-05T16:02:16.774Z,3.75
2023-01-05T16:05:24.524Z,4.22
2023-01-05T16:08:26.986Z,4.20
2023-01-05T16:11:40.068Z,7.15
2023-01-05T16:14:46.836Z,3.63
2023-01-05T16:17:51.606Z,4.53
2023-01-05T16:20:55.838Z,4.75
2023-01-05T16:24:22.485Z,3.83
2023-01-05T16:27:24.624Z,3.55
2023-01-05T16:30:41.376Z,3.03
2023-01-05T16:33:43.737Z,3.88
2023-01-05T16:37:03.117Z,4.13
2023-01-05T16:40:06.252Z,3.50
2023-01-05T16:43:20.375Z,4.03
2023-01-05T16:46:28.962Z,4.65
2023-01-05T16:49:49.917Z,4.32
2023-01-05T16:53:12.503Z,2.70
2023-01-05T16:56:32.044Z,2.42
2023-01-05T16:59:39.472Z,4.45
2023-01-05T17:02:46.002Z,4.70
2023-01-05T17:08:53.748Z,5.50
2023-01-05T17:11:55.674Z,8.00
2023-01-05T17:15:02.015Z,9.65
2023-01-05T17:18:17.278Z,2.47
2023-01-05T17:21:22.971Z,4.35
2023-01-05T17:24:26.234Z,4.70
2023-01-05T17:27:27.699Z,5.05
2023-01-05T17:30:29.296Z,3.38
2023-01-05T17:33:30.885Z,3.53
2023-01-05T17:36:35.289Z,5.95
2023-01-05T17:39:37.016Z,4.90
2023-01-05T17:42:44.660Z,2.78
2023-01-05T17:45:46.542Z,3.30
2023-01-05T17:48:48.709Z,4.18
2023-01-05T17:51:50.242Z,4.03
2023-01-05T17:54:51.726Z,5.70
2023-01-05T17:57:54.334Z,5.18
2023-01-05T18:00:55.861Z,4.00
2023-01-05T18:03:57.595Z,2.95
2023-01-05T18:07:00.899Z,3.25
2023-01-05T18:10:03.270Z,3.40
2023-01-05T18:13:05.234Z,3.40
2023-01-05T18:16:08.934Z,2.53
2023-01-05T18:19:10.386Z,3.15
2023-01-05T18:22:12.009Z,4.38
2023-01-05T18:25:13.760Z,3.45
2023-01-05T18:28:15.322Z,3.20
2023-01-05T18:31:16.824Z,2.38
2023-01-05T18:34:18.343Z,2.53
2023-01-05T18:37:21.921Z,3.50
2023-01-05T18:40:23.751Z,4.03
2023-01-05T18:43:25.289Z,2.08
2023-01-05T18:46:29.307Z,3.88
2023-01-05T18:49:31.000Z,2.13
2023-01-05T18:52:34.243Z,4.07
2023-01-05T18:55:40.088Z,3.08
2023-01-05T18:58:42.271Z,1.92
2023-01-05T19:01:43.886Z,3.15
2023-01-05T19:04:45.505Z,4.15
2023-01-05T19:07:52.215Z,2.15
2023-01-05T19:10:53.679Z,2.25
2023-01-05T19:13:56.553Z,1.60
2023-01-05T19:16:58.016Z,1.98
2023-01-05T19:19:59.688Z,2.35
2023-01-05T19:23:01.384Z,2.15
2023-01-05T19:26:04.935Z,3.13
2023-01-05T19:29:06.539Z,2.65
2023-01-05T19:32:08.065Z,3.22
2023-01-05T19:35:09.795Z,3.38
2023-01-05T19:38:11.528Z,2.53
2023-01-05T19:41:15.947Z,2.10
2023-01-05T19:44:20.008Z,1.90
2023-01-05T19:47:21.505Z,2.42
2023-01-05T19:50:23.060Z,3.35
2023-01-05T19:53:25.526Z,1.95
2023-01-05T19:56:30.203Z,2.40
2023-01-05T19:59:34.496Z,2.05
2023-01-05T20:02:36.061Z,2.38
2023-01-05T20:05:37.555Z,4.63
2023-01-05T20:08:39.907Z,2.10
2023-01-05T20:11:43.763Z,4.18
2023-01-05T20:14:45.254Z,3.28
2023-01-05T20:17:46.801Z,2.22
2023-01-05T20:20:48.255Z,2.78
2023-01-05T20:23:49.771Z,2.95
2023-01-05T20:26:54.059Z,2.65
2023-01-05T20:29:55.644Z,1.92
2023-01-05T20:32:57.222Z,3.72
2023-01-05T20:35:58.753Z,2.80
2023-01-05T20:39:01.218Z,2.15
2023-01-05T20:42:05.925Z,2.17
2023-01-05T20:45:07.815Z,2.45
2023-01-05T20:48:09.363Z,2.20
2023-01-05T20:51:13.005Z,2.65
2023-01-05T20:54:15.191Z,2.92
2023-01-05T20:57:16.759Z,2.15
2023-01-05T21:00:18.385Z,2.83
2023-01-05T21:03:19.943Z,2.58
2023-01-05T21:06:21.711Z,3.45
2023-01-05T21:09:24.853Z,1.42
2023-01-05T21:12:26.460Z,1.98
2023-01-05T21:15:29.184Z,2.22
2023-01-05T21:18:32.821Z,2.20
2023-01-05T21:21:34.487Z,2.40
2023-01-05T21:24:36.539Z,2.22
2023-01-05T21:27:38.061Z,3.58
2023-01-05T21:30:39.600Z,2.38
2023-01-05T21:33:41.871Z,2.30
2023-01-05T21:36:45.687Z,1.90
2023-01-05T21:39:47.709Z,2.28
2023-01-05T21:42:50.198Z,2.95
2023-01-05T21:45:51.701Z,2.75
2023-01-05T21:48:53.241Z,3.22
2023-01-05T21:52:13.225Z,2.60
2023-01-05T21:55:33.619Z,3.42
2023-01-05T21:58:35.526Z,3.25
2023-01-05T22:01:38.599Z,4.20
2023-01-05T22:04:40.473Z,3.20
2023-01-05T22:07:42.092Z,2.60
2023-01-05T22:10:43.657Z,3.03
2023-01-05T22:13:45.539Z,2.75
2023-01-05T22:16:47.233Z,2.90
2023-01-05T22:19:48.798Z,2.80
2023-01-05T22:22:50.301Z,1.75
2023-01-05T22:25:58.997Z,2.47
2023-01-05T22:29:00.709Z,1.83
2023-01-05T22:32:03.128Z,2.97
2023-01-05T22:35:05.285Z,3.92
2023-01-05T22:38:06.800Z,2.22
2023-01-05T22:41:10.786Z,2.53
2023-01-05T22:44:12.432Z,2.05
2023-01-05T22:47:13.981Z,2.38
2023-01-05T22:50:15.514Z,2.72
2023-01-05T22:53:17.004Z,3.50
2023-01-05T22:56:20.480Z,2.72
2023-01-05T22:59:22.496Z,2.92
2023-01-05T23:02:24.088Z,2.17
2023-01-05T23:05:25.975Z,2.88
2023-01-05T23:08:27.894Z,2.55
2023-01-05T23:11:36.314Z,2.45
2023-01-05T23:14:37.765Z,2.53
2023-01-05T23:17:39.224Z,2.58
2023-01-05T23:20:40.704Z,2.35
2023-01-05T23:23:43.928Z,3.25
2023-01-05T23:26:45.414Z,1.55
2023-01-05T23:29:46.929Z,3.03
2023-01-05T23:32:48.449Z,2.40
2023-01-05T23:35:51.682Z,3.13
2023-01-05T23:38:53.340Z,1.95
2023-01-05T23:41:54.879Z,2.08
2023-01-05T23:44:56.381Z,2.08
2023-01-05T23:47:59.974Z,1.98
2023-01-05T23:51:02.288Z,3.10
2023-01-05T23:54:03.927Z,2.67
2023-01-05T23:57:05.382Z,2.08
